createdAt,value
2018-05-17T00:00:44.533Z,0
2018-05-17T00:01:46.027Z,0
2018-05-17T00:02:47.506Z,0
2018-05-17T00:03:49.012Z,0
2018-05-17T00:04:50.521Z,0
2018-05-17T00:05:52.064Z,0
2018-05-17T00:06:53.597Z,0
2018-05-17T00:07:55.244Z,0
2018-05-17T00:08:56.758Z,0
2018-05-17T00:09:58.268Z,0
2018-05-17T00:10:59.756Z,0
2018-05-17T00:12:01.186Z,0
2018-05-17T00:13:02.670Z,0
2018-05-17T00:14:04.138Z,0
2018-05-17T00:15:05.615Z,0
2018-05-17T00:16:07.098Z,0
2018-05-17T00:17:08.584Z,0
2018-05-17T00:18:10.125Z,0
2018-05-17T00:19:11.581Z,0
2018-05-17T00:20:13.066Z,0
2018-05-17T00:21:14.622Z,0
2018-05-17T00:22:16.129Z,0
2018-05-17T00:23:17.665Z,0
2018-05-17T00:24:19.186Z,0
2018-05-17T00:25:20.756Z,0
2018-05-17T00:26:22.288Z,0
2018-05-17T00:27:23.755Z,0
2018-05-17T00:28:25.170Z,0
2018-05-17T00:29:26.617Z,0
2018-05-17T00:30:28.155Z,0
2018-05-17T00:31:29.797Z,0
2018-05-17T00:32:31.228Z,0
2018-05-17T00:33:32.613Z,0
2018-05-17T00:34:34.078Z,0
2018-05-17T00:35:35.623Z,0
2018-05-17T00:36:37.199Z,0
2018-05-17T00:37:38.818Z,0
2018-05-17T00:39:20.436Z,0
2018-05-17T00:40:21.804Z,0
2018-05-17T00:41:23.204Z,0
2018-05-17T00:42:24.676Z,0
2018-05-17T00:44:05.848Z,0
2018-05-17T00:45:07.225Z,0
2018-05-17T00:46:08.641Z,0
2018-05-17T00:47:55.484Z,0
2018-05-17T00:48:56.909Z,0
2018-05-17T00:50:37.993Z,0
2018-05-17T00:51:39.777Z,0
2018-05-17T00:52:41.561Z,0
2018-05-17T00:53:42.980Z,0
2018-05-17T00:54:44.651Z,0
2018-05-17T00:55:46.342Z,0
2018-05-17T00:56:48.381Z,0
2018-05-17T00:57:49.784Z,0
2018-05-17T00:58:51.495Z,0
2018-05-17T00:59:53.329Z,0
2018-05-17T01:00:54.836Z,0
2018-05-17T01:01:56.490Z,0
2018-05-17T01:02:58.017Z,0
2018-05-17T01:03:59.625Z,0
2018-05-17T01:05:01.188Z,0
2018-05-17T01:06:02.868Z,0
2018-05-17T01:07:04.338Z,0
2018-05-17T01:08:05.896Z,0
2018-05-17T01:09:07.388Z,0
2018-05-17T01:10:09.001Z,0
2018-05-17T01:11:10.500Z,0
2018-05-17T01:12:12.075Z,0
2018-05-17T01:13:13.620Z,0
2018-05-17T01:14:15.414Z,0
2018-05-17T01:15:16.890Z,0
2018-05-17T01:16:18.530Z,0
2018-05-17T01:17:20.000Z,0
2018-05-17T01:18:21.530Z,0
2018-05-17T01:19:23.161Z,0
2018-05-17T01:20:24.777Z,0
2018-05-17T01:21:26.441Z,0
2018-05-17T01:22:27.932Z,0
2018-05-17T01:23:29.452Z,0
2018-05-17T01:24:31.162Z,0
2018-05-17T01:25:32.743Z,0
2018-05-17T01:26:34.383Z,0
2018-05-17T01:27:36.012Z,0
2018-05-17T01:28:37.547Z,0
2018-05-17T01:29:39.317Z,0
2018-05-17T01:30:40.861Z,0
2018-05-17T01:31:42.462Z,0
2018-05-17T01:32:44.075Z,0
2018-05-17T01:33:45.639Z,0
2018-05-17T01:34:47.154Z,0
2018-05-17T01:35:48.960Z,0
2018-05-17T01:36:50.461Z,0
2018-05-17T01:37:51.999Z,0
2018-05-17T01:38:53.562Z,0
2018-05-17T01:39:55.252Z,0
2018-05-17T01:40:56.875Z,0
2018-05-17T01:41:58.343Z,0
2018-05-17T01:42:59.982Z,0
2018-05-17T01:44:01.500Z,0
2018-05-17T01:45:03.005Z,0
2018-05-17T01:46:04.482Z,0
2018-05-17T01:47:05.953Z,0
2018-05-17T01:48:07.453Z,0
2018-05-17T01:49:08.962Z,0
2018-05-17T01:50:10.507Z,0
2018-05-17T01:51:12.024Z,0
2018-05-17T01:52:13.671Z,0
2018-05-17T01:53:15.161Z,0
2018-05-17T01:54:16.703Z,0
2018-05-17T01:55:18.391Z,0
2018-05-17T01:56:19.878Z,0
2018-05-17T01:57:21.467Z,0
2018-05-17T01:58:22.981Z,0
2018-05-17T01:59:24.563Z,0
2018-05-17T02:00:26.152Z,0
2018-05-17T02:01:27.670Z,0
2018-05-17T02:02:29.233Z,0
2018-05-17T02:03:30.761Z,0
2018-05-17T02:04:32.236Z,0
2018-05-17T02:05:33.719Z,0
2018-05-17T02:06:35.260Z,0
2018-05-17T02:07:36.818Z,0
2018-05-17T02:08:38.389Z,0
2018-05-17T02:09:40.143Z,0
2018-05-17T02:10:41.843Z,0
2018-05-17T02:11:43.395Z,0
2018-05-17T02:12:44.993Z,0
2018-05-17T02:13:46.690Z,0
2018-05-17T02:14:48.200Z,0
2018-05-17T02:16:30.177Z,0
2018-05-17T02:17:31.573Z,0
2018-05-17T02:18:33.172Z,0
2018-05-17T02:19:34.662Z,0
2018-05-17T02:20:36.491Z,0
2018-05-17T02:21:38.190Z,0
2018-05-17T02:22:39.923Z,0
2018-05-17T02:23:41.436Z,0
2018-05-17T02:24:43.117Z,0
2018-05-17T02:25:44.793Z,0
2018-05-17T02:26:46.588Z,0
2018-05-17T02:27:48.103Z,0
2018-05-17T02:28:49.749Z,0
2018-05-17T02:29:51.666Z,0
2018-05-17T02:30:53.363Z,0
2018-05-17T02:31:55.021Z,0
2018-05-17T02:32:56.606Z,0
2018-05-17T02:33:58.201Z,0
2018-05-17T02:34:59.808Z,0
2018-05-17T02:36:01.315Z,0
2018-05-17T02:37:02.940Z,0
2018-05-17T02:38:43.780Z,0
2018-05-17T02:39:46.113Z,0
2018-05-17T02:40:47.493Z,0
2018-05-17T02:41:48.948Z,0
2018-05-17T02:42:50.436Z,0
2018-05-17T02:43:51.970Z,0
2018-05-17T02:44:53.472Z,0
2018-05-17T02:45:55.145Z,0
2018-05-17T02:46:56.842Z,0
2018-05-17T02:47:58.465Z,0
2018-05-17T02:49:00.088Z,0
2018-05-17T02:50:01.533Z,0
2018-05-17T02:51:03.082Z,0
2018-05-17T02:52:04.929Z,0
2018-05-17T02:53:06.398Z,0
2018-05-17T02:54:07.938Z,0
2018-05-17T02:55:09.499Z,0
2018-05-17T02:56:11.170Z,0
2018-05-17T02:57:12.694Z,0
2018-05-17T02:58:14.410Z,0
2018-05-17T02:59:16.007Z,0
2018-05-17T03:00:17.666Z,0
2018-05-17T03:01:19.175Z,0
2018-05-17T03:02:20.817Z,0
2018-05-17T03:03:22.418Z,0
2018-05-17T03:04:23.919Z,0
2018-05-17T03:05:25.525Z,0
2018-05-17T03:06:27.174Z,0
2018-05-17T03:07:28.685Z,0
2018-05-17T03:08:30.214Z,0
2018-05-17T03:09:31.744Z,0
2018-05-17T03:10:33.614Z,0
2018-05-17T03:11:36.213Z,0
2018-05-17T03:12:37.715Z,0
2018-05-17T03:13:39.363Z,0
2018-05-17T03:14:40.858Z,0
2018-05-17T03:15:42.421Z,0
2018-05-17T03:16:44.058Z,0
2018-05-17T03:17:45.684Z,0
2018-05-17T03:18:47.135Z,0
2018-05-17T03:19:48.654Z,0
2018-05-17T03:20:50.157Z,0
2018-05-17T03:21:51.855Z,0
2018-05-17T03:22:53.480Z,0
2018-05-17T03:23:55.032Z,0
2018-05-17T03:24:56.551Z,0
2018-05-17T03:25:58.203Z,0
2018-05-17T03:26:59.771Z,0
2018-05-17T03:28:01.295Z,0
2018-05-17T03:29:02.940Z,0
2018-05-17T03:30:04.458Z,0
2018-05-17T03:31:06.825Z,0
2018-05-17T03:32:08.342Z,0
2018-05-17T03:33:10.018Z,0
2018-05-17T03:34:11.637Z,0
2018-05-17T03:35:13.288Z,0
2018-05-17T03:36:14.868Z,0
2018-05-17T03:37:16.400Z,5
2018-05-17T03:38:18.228Z,5
2018-05-17T03:39:19.885Z,5
2018-05-17T03:40:21.504Z,5
2018-05-17T03:41:23.055Z,0
2018-05-17T03:42:24.652Z,0
2018-05-17T03:43:26.255Z,0
2018-05-17T03:44:27.999Z,5
2018-05-17T03:45:29.578Z,5
2018-05-17T03:46:31.323Z,5
2018-05-17T03:47:32.947Z,5
2018-05-17T03:48:34.519Z,5
2018-05-17T03:49:36.032Z,5
2018-05-17T03:50:37.576Z,5
2018-05-17T03:51:39.375Z,5
2018-05-17T03:52:40.836Z,5
2018-05-17T03:53:42.326Z,5
2018-05-17T03:54:43.898Z,5
2018-05-17T03:55:45.662Z,11
2018-05-17T03:56:47.260Z,11
2018-05-17T03:57:48.793Z,11
2018-05-17T03:58:50.349Z,11
2018-05-17T03:59:52.009Z,11
2018-05-17T04:00:53.603Z,11
2018-05-17T04:01:55.180Z,11
2018-05-17T04:02:56.731Z,11
2018-05-17T04:03:58.327Z,11
2018-05-17T04:04:59.774Z,11
2018-05-17T04:06:01.202Z,11
2018-05-17T04:07:02.934Z,11
2018-05-17T04:08:04.372Z,11
2018-05-17T04:09:06.053Z,16
2018-05-17T04:10:07.692Z,16
2018-05-17T04:11:09.279Z,16
2018-05-17T04:12:10.883Z,16
2018-05-17T04:13:12.391Z,16
2018-05-17T04:14:13.889Z,16
2018-05-17T04:15:15.491Z,16
2018-05-17T04:16:17.064Z,16
2018-05-17T04:17:58.772Z,11
2018-05-17T04:19:00.159Z,11
2018-05-17T04:20:01.620Z,11
2018-05-17T04:21:03.159Z,11
2018-05-17T04:22:04.706Z,11
2018-05-17T04:23:06.289Z,16
2018-05-17T04:24:07.779Z,16
2018-05-17T04:25:09.387Z,16
2018-05-17T04:26:10.887Z,16
2018-05-17T04:27:12.352Z,16
2018-05-17T04:28:13.928Z,22
2018-05-17T04:29:15.527Z,22
2018-05-17T04:30:17.132Z,22
2018-05-17T04:31:18.890Z,22
2018-05-17T04:33:00.029Z,22
2018-05-17T04:34:41.190Z,28
2018-05-17T04:35:42.687Z,28
2018-05-17T04:36:44.023Z,28
2018-05-17T04:37:45.542Z,28
2018-05-17T04:38:47.257Z,28
2018-05-17T04:40:28.203Z,33
2018-05-17T04:42:09.184Z,45
2018-05-17T04:43:10.596Z,39
2018-05-17T04:44:12.086Z,39
2018-05-17T04:45:13.685Z,39
2018-05-17T04:46:15.156Z,45
2018-05-17T04:47:16.880Z,45
2018-05-17T04:48:18.357Z,45
2018-05-17T04:49:19.955Z,45
2018-05-17T04:50:21.479Z,39
2018-05-17T04:52:02.801Z,39
2018-05-17T04:53:43.811Z,45
2018-05-17T04:54:45.271Z,50
2018-05-17T04:56:26.603Z,45
2018-05-17T04:57:28.374Z,45
2018-05-17T04:58:29.858Z,45
2018-05-17T04:59:31.414Z,50
2018-05-17T05:01:12.298Z,67
2018-05-17T05:02:13.704Z,73
2018-05-17T05:03:56.595Z,61
2018-05-17T05:05:39.123Z,56
2018-05-17T05:07:20.048Z,61
2018-05-17T05:08:21.954Z,61
2018-05-17T05:10:02.873Z,50
2018-05-17T05:11:04.302Z,50
2018-05-17T05:12:05.951Z,56
2018-05-17T05:13:46.807Z,67
2018-05-17T05:14:48.472Z,73
2018-05-17T05:15:50.034Z,73
2018-05-17T05:16:51.567Z,61
2018-05-17T05:17:53.636Z,56
2018-05-17T05:18:55.209Z,61
2018-05-17T05:19:56.893Z,61
2018-05-17T05:20:58.706Z,61
2018-05-17T05:22:00.326Z,56
2018-05-17T05:23:01.860Z,61
2018-05-17T05:24:03.435Z,61
2018-05-17T05:25:04.922Z,50
2018-05-17T05:26:45.792Z,45
2018-05-17T05:27:48.215Z,50
2018-05-17T05:28:49.826Z,50
2018-05-17T05:29:51.500Z,45
2018-05-17T05:31:34.429Z,39
2018-05-17T05:32:36.186Z,39
2018-05-17T05:33:37.609Z,39
2018-05-17T05:34:39.238Z,45
2018-05-17T05:35:40.950Z,50
2018-05-17T05:36:42.538Z,56
2018-05-17T05:37:44.085Z,67
2018-05-17T05:38:45.701Z,73
2018-05-17T05:39:47.341Z,73
2018-05-17T05:40:48.878Z,78
2018-05-17T05:41:50.484Z,95
2018-05-17T05:42:52.064Z,118
2018-05-17T05:43:53.585Z,112
2018-05-17T05:44:55.320Z,95
2018-05-17T05:45:56.909Z,106
2018-05-17T05:46:58.430Z,106
2018-05-17T05:48:00.074Z,112
2018-05-17T05:49:01.625Z,123
2018-05-17T05:50:03.174Z,135
2018-05-17T05:51:04.791Z,151
2018-05-17T05:52:06.307Z,146
2018-05-17T05:53:07.948Z,151
2018-05-17T05:54:09.644Z,146
2018-05-17T05:55:11.232Z,151
2018-05-17T05:56:12.699Z,157
2018-05-17T05:57:14.287Z,168
2018-05-17T05:58:15.809Z,174
2018-05-17T05:59:17.505Z,185
2018-05-17T06:00:19.128Z,202
2018-05-17T06:01:20.647Z,208
2018-05-17T06:02:22.412Z,208
2018-05-17T06:03:23.876Z,213
2018-05-17T06:04:25.488Z,208
2018-05-17T06:05:27.073Z,202
2018-05-17T06:06:28.607Z,213
2018-05-17T06:07:30.210Z,219
2018-05-17T06:08:31.930Z,202
2018-05-17T06:09:33.467Z,180
2018-05-17T06:10:35.204Z,163
2018-05-17T06:11:36.879Z,146
2018-05-17T06:12:38.383Z,123
2018-05-17T06:13:39.929Z,112
2018-05-17T06:14:41.730Z,118
2018-05-17T06:15:43.296Z,118
2018-05-17T06:16:44.875Z,129
2018-05-17T06:17:46.603Z,129
2018-05-17T06:18:48.409Z,135
2018-05-17T06:19:50.450Z,146
2018-05-17T06:20:51.593Z,157
2018-05-17T06:21:53.152Z,174
2018-05-17T06:22:54.694Z,202
2018-05-17T06:23:56.904Z,230
2018-05-17T06:24:58.557Z,236
2018-05-17T06:26:00.052Z,236
2018-05-17T06:27:01.614Z,241
2018-05-17T06:28:03.125Z,230
2018-05-17T06:29:04.695Z,202
2018-05-17T06:30:06.306Z,191
2018-05-17T06:31:07.972Z,174
2018-05-17T06:32:09.400Z,163
2018-05-17T06:33:10.947Z,157
2018-05-17T06:34:12.582Z,168
2018-05-17T06:35:14.361Z,185
2018-05-17T06:36:15.865Z,196
2018-05-17T06:37:17.559Z,202
2018-05-17T06:38:19.075Z,191
2018-05-17T06:39:20.641Z,185
2018-05-17T06:40:22.345Z,202
2018-05-17T06:41:23.834Z,225
2018-05-17T06:42:25.327Z,225
2018-05-17T06:43:26.987Z,225
2018-05-17T06:44:28.516Z,219
2018-05-17T06:45:30.057Z,213
2018-05-17T06:46:31.645Z,219
2018-05-17T06:47:33.177Z,213
2018-05-17T06:48:34.763Z,219
2018-05-17T06:49:36.290Z,225
2018-05-17T06:50:37.845Z,225
2018-05-17T06:51:39.510Z,241
2018-05-17T06:52:41.140Z,264
2018-05-17T06:53:42.706Z,298
2018-05-17T06:54:44.347Z,337
2018-05-17T06:55:46.023Z,376
2018-05-17T06:56:47.754Z,365
2018-05-17T06:57:49.354Z,326
2018-05-17T06:58:50.881Z,315
2018-05-17T06:59:52.432Z,320
2018-05-17T07:00:54.147Z,331
2018-05-17T07:01:55.636Z,331
2018-05-17T07:02:57.242Z,326
2018-05-17T07:03:58.796Z,315
2018-05-17T07:05:00.398Z,320
2018-05-17T07:06:02.011Z,326
2018-05-17T07:07:03.642Z,331
2018-05-17T07:08:05.209Z,331
2018-05-17T07:09:06.761Z,326
2018-05-17T07:10:08.403Z,348
2018-05-17T07:11:10.038Z,371
2018-05-17T07:12:11.529Z,360
2018-05-17T07:13:13.050Z,365
2018-05-17T07:14:14.723Z,399
2018-05-17T07:15:16.285Z,433
2018-05-17T07:16:17.832Z,483
2018-05-17T07:17:19.345Z,511
2018-05-17T07:18:20.969Z,489
2018-05-17T07:19:22.554Z,438
2018-05-17T07:20:24.115Z,405
2018-05-17T07:21:25.757Z,393
2018-05-17T07:22:27.365Z,405
2018-05-17T07:23:28.926Z,427
2018-05-17T07:24:30.417Z,466
2018-05-17T07:25:32.040Z,472
2018-05-17T07:26:33.556Z,500
2018-05-17T07:27:35.183Z,573
2018-05-17T07:28:36.749Z,590
2018-05-17T07:29:38.368Z,613
2018-05-17T07:30:39.997Z,675
2018-05-17T07:31:41.578Z,765
2018-05-17T07:32:43.150Z,928
2018-05-17T07:33:44.746Z,1006
2018-05-17T07:34:46.299Z,945
2018-05-17T07:35:47.878Z,849
2018-05-17T07:36:49.513Z,849
2018-05-17T07:37:51.035Z,871
2018-05-17T07:38:52.611Z,939
2018-05-17T07:39:54.140Z,1046
2018-05-17T07:40:55.827Z,1051
2018-05-17T07:41:57.409Z,1040
2018-05-17T07:42:58.981Z,961
2018-05-17T07:44:00.499Z,978
2018-05-17T07:45:02.050Z,900
2018-05-17T07:46:03.624Z,866
2018-05-17T07:47:05.117Z,905
2018-05-17T07:48:06.591Z,945
2018-05-17T07:49:08.159Z,956
2018-05-17T07:50:09.707Z,967
2018-05-17T07:51:11.266Z,883
2018-05-17T07:52:12.807Z,849
2018-05-17T07:53:14.300Z,798
2018-05-17T07:54:15.829Z,776
2018-05-17T07:55:17.503Z,798
2018-05-17T07:56:19.066Z,883
2018-05-17T07:57:20.662Z,967
2018-05-17T07:58:22.231Z,905
2018-05-17T07:59:23.757Z,860
2018-05-17T08:00:25.377Z,849
2018-05-17T08:01:26.893Z,860
2018-05-17T08:02:28.355Z,945
2018-05-17T08:03:30.055Z,1018
2018-05-17T08:04:31.606Z,1012
2018-05-17T08:05:33.118Z,1074
2018-05-17T08:06:34.633Z,1198
2018-05-17T08:07:36.151Z,1282
2018-05-17T08:08:37.705Z,1141
2018-05-17T08:09:39.221Z,1125
2018-05-17T08:10:40.781Z,1119
2018-05-17T08:11:42.349Z,1108
2018-05-17T08:12:43.846Z,1113
2018-05-17T08:13:45.341Z,1006
2018-05-17T08:14:46.821Z,900
2018-05-17T08:15:48.394Z,832
2018-05-17T08:16:49.907Z,810
2018-05-17T08:17:51.616Z,860
2018-05-17T08:18:53.185Z,950
2018-05-17T08:19:54.713Z,1035
2018-05-17T08:20:56.327Z,900
2018-05-17T08:21:57.890Z,821
2018-05-17T08:22:59.399Z,759
2018-05-17T08:24:00.896Z,736
2018-05-17T08:25:02.481Z,691
2018-05-17T08:26:04.054Z,658
2018-05-17T08:27:06.459Z,658
2018-05-17T08:28:08.052Z,630
2018-05-17T08:29:09.606Z,601
2018-05-17T08:30:11.203Z,601
2018-05-17T08:31:12.734Z,635
2018-05-17T08:32:14.288Z,652
2018-05-17T08:33:15.841Z,635
2018-05-17T08:34:17.345Z,630
2018-05-17T08:35:18.951Z,641
2018-05-17T08:36:20.526Z,590
2018-05-17T08:37:22.020Z,556
2018-05-17T08:38:23.523Z,579
2018-05-17T08:39:25.136Z,652
2018-05-17T08:40:26.616Z,720
2018-05-17T08:41:28.169Z,720
2018-05-17T08:42:29.765Z,703
2018-05-17T08:43:31.269Z,708
2018-05-17T08:44:32.796Z,708
2018-05-17T08:45:34.417Z,680
2018-05-17T08:46:35.938Z,624
2018-05-17T08:47:37.498Z,601
2018-05-17T08:48:39.007Z,618
2018-05-17T08:49:40.512Z,635
2018-05-17T08:50:42.173Z,618
2018-05-17T08:51:43.727Z,607
2018-05-17T08:52:45.347Z,590
2018-05-17T08:53:46.948Z,596
2018-05-17T08:54:48.661Z,562
2018-05-17T08:55:50.245Z,551
2018-05-17T08:56:51.745Z,551
2018-05-17T08:57:53.245Z,562
2018-05-17T08:58:54.766Z,585
2018-05-17T08:59:56.307Z,590
2018-05-17T09:00:57.850Z,579
2018-05-17T09:01:59.411Z,545
2018-05-17T09:03:01.040Z,517
2018-05-17T09:04:02.730Z,506
2018-05-17T09:05:04.174Z,511
2018-05-17T09:06:06.754Z,495
2018-05-17T09:07:08.320Z,466
2018-05-17T09:08:09.940Z,455
2018-05-17T09:09:11.501Z,466
2018-05-17T09:10:13.143Z,478
2018-05-17T09:11:14.747Z,461
2018-05-17T09:12:16.333Z,450
2018-05-17T09:13:18.041Z,450
2018-05-17T09:14:19.569Z,444
2018-05-17T09:15:21.318Z,427
2018-05-17T09:16:22.870Z,438
2018-05-17T09:17:24.505Z,483
2018-05-17T09:18:26.058Z,495
2018-05-17T09:19:27.587Z,528
2018-05-17T09:20:29.257Z,624
2018-05-17T09:21:30.757Z,691
2018-05-17T09:22:32.347Z,731
2018-05-17T09:23:33.969Z,736
2018-05-17T09:24:35.499Z,759
2018-05-17T09:25:37.197Z,787
2018-05-17T09:26:38.760Z,810
2018-05-17T09:27:40.277Z,798
2018-05-17T09:28:41.872Z,781
2018-05-17T09:29:43.488Z,781
2018-05-17T09:30:45.082Z,860
2018-05-17T09:31:46.723Z,945
2018-05-17T09:32:48.281Z,990
2018-05-17T09:33:49.902Z,990
2018-05-17T09:34:51.468Z,933
2018-05-17T09:35:52.993Z,911
2018-05-17T09:36:54.580Z,883
2018-05-17T09:37:56.115Z,866
2018-05-17T09:38:57.714Z,871
2018-05-17T09:39:59.304Z,843
2018-05-17T09:41:00.874Z,793
2018-05-17T09:42:02.509Z,781
2018-05-17T09:43:04.137Z,787
2018-05-17T09:44:05.680Z,821
2018-05-17T09:45:07.206Z,866
2018-05-17T09:46:08.795Z,933
2018-05-17T09:47:10.247Z,978
2018-05-17T09:48:11.724Z,1068
2018-05-17T09:49:13.247Z,1175
2018-05-17T09:50:14.819Z,1400
2018-05-17T09:51:16.429Z,1383
2018-05-17T09:52:18.075Z,1361
2018-05-17T09:53:19.519Z,1192
2018-05-17T09:54:21.056Z,1141
2018-05-17T09:55:22.657Z,1164
2018-05-17T09:56:24.139Z,1164
2018-05-17T09:57:25.855Z,1130
2018-05-17T09:58:27.350Z,1125
2018-05-17T09:59:28.965Z,1164
2018-05-17T10:00:30.512Z,1198
2018-05-17T10:01:32.171Z,1164
2018-05-17T10:02:33.741Z,1136
2018-05-17T10:03:35.284Z,1102
2018-05-17T10:04:36.852Z,1046
2018-05-17T10:05:38.355Z,1012
2018-05-17T10:06:40.076Z,1006
2018-05-17T10:07:41.561Z,1063
2018-05-17T10:08:43.096Z,1113
2018-05-17T10:09:44.587Z,1158
2018-05-17T10:10:46.222Z,1243
2018-05-17T10:11:47.749Z,1518
2018-05-17T10:12:49.247Z,1597
2018-05-17T10:13:50.808Z,1642
2018-05-17T10:14:52.400Z,1569
2018-05-17T10:15:53.899Z,1355
2018-05-17T10:16:55.394Z,1226
2018-05-17T10:17:56.932Z,1192
2018-05-17T10:18:58.600Z,1215
2018-05-17T10:20:01.746Z,1248
2018-05-17T10:21:03.265Z,1243
2018-05-17T10:22:04.790Z,1265
2018-05-17T10:23:06.378Z,1293
2018-05-17T10:24:07.867Z,1333
2018-05-17T10:25:09.567Z,1288
2018-05-17T10:26:11.094Z,1395
2018-05-17T10:27:12.620Z,1490
2018-05-17T10:28:14.142Z,1417
2018-05-17T10:29:15.710Z,1355
2018-05-17T10:30:17.273Z,1271
2018-05-17T10:31:18.788Z,1203
2018-05-17T10:32:20.298Z,1203
2018-05-17T10:33:21.806Z,1231
2018-05-17T10:34:23.408Z,1209
2018-05-17T10:35:25.109Z,1220
2018-05-17T10:36:26.661Z,1282
2018-05-17T10:37:28.265Z,1378
2018-05-17T10:38:29.781Z,1445
2018-05-17T10:39:31.396Z,1434
2018-05-17T10:40:32.924Z,1468
2018-05-17T10:41:34.412Z,1524
2018-05-17T10:42:36.584Z,1659
2018-05-17T10:43:38.218Z,1788
2018-05-17T10:44:40.195Z,1608
2018-05-17T10:45:42.595Z,1625
2018-05-17T10:46:44.073Z,1726
2018-05-17T10:47:45.581Z,1766
2018-05-17T10:48:47.191Z,1788
2018-05-17T10:49:48.756Z,1732
2018-05-17T10:50:50.359Z,1783
2018-05-17T10:51:52.003Z,1670
2018-05-17T10:52:53.557Z,1648
2018-05-17T10:53:55.091Z,1620
2018-05-17T10:54:56.630Z,1530
2018-05-17T10:55:58.210Z,1698
2018-05-17T10:56:59.728Z,1327
2018-05-17T10:58:01.218Z,1310
2018-05-17T10:59:02.724Z,1293
2018-05-17T11:00:04.227Z,1265
2018-05-17T11:01:06.294Z,1237
2018-05-17T11:02:07.771Z,1220
2018-05-17T11:03:09.324Z,1254
2018-05-17T11:04:10.832Z,1265
2018-05-17T11:05:12.418Z,1248
2018-05-17T11:06:13.942Z,1175
2018-05-17T11:07:15.530Z,1108
2018-05-17T11:08:17.095Z,1063
2018-05-17T11:09:18.677Z,1023
2018-05-17T11:10:20.231Z,1018
2018-05-17T11:11:21.796Z,1023
2018-05-17T11:12:23.406Z,1035
2018-05-17T11:13:24.917Z,1080
2018-05-17T11:14:26.509Z,1153
2018-05-17T11:15:28.137Z,1237
2018-05-17T11:16:29.717Z,1366
2018-05-17T11:17:31.260Z,1935
2018-05-17T11:18:33.173Z,2137
2018-05-17T11:19:34.658Z,1935
2018-05-17T11:20:36.289Z,2013
2018-05-17T11:21:37.847Z,1991
2018-05-17T11:22:39.535Z,2390
2018-05-17T11:23:41.119Z,2986
2018-05-17T11:24:42.718Z,2036
2018-05-17T11:25:44.319Z,3121
2018-05-17T11:26:45.938Z,2891
2018-05-17T11:27:47.563Z,2716
2018-05-17T11:28:49.133Z,3071
2018-05-17T11:29:50.674Z,1766
2018-05-17T11:30:52.282Z,3116
2018-05-17T11:31:53.847Z,3397
2018-05-17T11:32:55.461Z,3352
2018-05-17T11:33:56.891Z,3166
2018-05-17T11:34:58.399Z,1760
2018-05-17T11:35:59.892Z,1721
2018-05-17T11:37:01.413Z,1563
2018-05-17T11:38:02.969Z,1428
2018-05-17T11:39:04.539Z,1361
2018-05-17T11:40:06.674Z,1378
2018-05-17T11:41:08.090Z,1400
2018-05-17T11:42:09.667Z,1440
2018-05-17T11:43:11.251Z,1541
2018-05-17T11:44:12.843Z,1614
2018-05-17T11:45:14.345Z,1856
2018-05-17T11:46:15.946Z,2722
2018-05-17T11:47:17.535Z,2621
2018-05-17T11:48:19.218Z,2520
2018-05-17T11:49:20.579Z,2379
2018-05-17T11:50:22.150Z,2385
2018-05-17T11:51:23.646Z,2525
2018-05-17T11:52:25.195Z,2615
2018-05-17T11:53:26.837Z,2621
2018-05-17T11:54:28.532Z,2610
2018-05-17T11:55:30.196Z,2565
2018-05-17T11:56:31.705Z,2559
2018-05-17T11:57:33.182Z,2593
2018-05-17T11:58:34.721Z,2711
2018-05-17T11:59:36.257Z,2559
2018-05-17T12:00:37.828Z,1878
2018-05-17T12:01:39.471Z,2356
2018-05-17T12:02:41.053Z,2452
2018-05-17T12:03:42.500Z,2497
2018-05-17T12:04:43.995Z,2587
2018-05-17T12:05:45.613Z,2705
2018-05-17T12:06:47.202Z,2722
2018-05-17T12:07:48.715Z,2458
2018-05-17T12:08:50.209Z,2435
2018-05-17T12:09:51.777Z,2514
2018-05-17T12:10:53.368Z,2649
2018-05-17T12:11:54.932Z,2677
2018-05-17T12:12:57.025Z,2621
2018-05-17T12:13:58.718Z,2593
2018-05-17T12:15:00.294Z,2441
2018-05-17T12:16:02.105Z,2407
2018-05-17T12:17:03.664Z,2250
2018-05-17T12:18:05.237Z,2323
2018-05-17T12:19:06.876Z,2328
2018-05-17T12:20:08.534Z,2311
2018-05-17T12:21:10.090Z,2401
2018-05-17T12:22:11.586Z,2340
2018-05-17T12:23:13.126Z,2266
2018-05-17T12:24:14.793Z,1794
2018-05-17T12:25:16.366Z,1743
2018-05-17T12:26:17.819Z,1310
2018-05-17T12:27:19.477Z,1282
2018-05-17T12:28:20.970Z,1265
2018-05-17T12:29:22.527Z,1243
2018-05-17T12:30:24.081Z,1215
2018-05-17T12:31:25.672Z,1220
2018-05-17T12:32:27.286Z,1220
2018-05-17T12:33:28.972Z,1226
2018-05-17T12:34:30.557Z,1231
2018-05-17T12:35:32.195Z,1248
2018-05-17T12:36:33.804Z,1276
2018-05-17T12:37:35.958Z,1276
2018-05-17T12:38:37.589Z,1282
2018-05-17T12:39:39.290Z,1473
2018-05-17T12:40:41.065Z,1569
2018-05-17T12:41:42.580Z,1496
2018-05-17T12:42:44.274Z,1293
2018-05-17T12:43:45.897Z,1260
2018-05-17T12:44:47.565Z,1271
2018-05-17T12:45:49.135Z,1321
2018-05-17T12:46:51.090Z,1383
2018-05-17T12:47:52.811Z,1355
2018-05-17T12:48:54.788Z,1344
2018-05-17T12:49:56.306Z,1361
2018-05-17T12:50:57.913Z,1383
2018-05-17T12:51:59.340Z,1411
2018-05-17T12:53:01.163Z,1451
2018-05-17T12:54:02.895Z,1530
2018-05-17T12:55:04.642Z,1569
2018-05-17T12:56:07.252Z,1625
2018-05-17T12:57:08.884Z,1603
2018-05-17T12:58:10.655Z,1575
2018-05-17T12:59:12.337Z,1417
2018-05-17T13:00:13.994Z,1417
2018-05-17T13:01:15.550Z,1456
2018-05-17T13:02:17.359Z,1501
2018-05-17T13:03:18.880Z,1558
2018-05-17T13:04:20.456Z,1693
2018-05-17T13:05:22.213Z,1614
2018-05-17T13:06:23.725Z,1535
2018-05-17T13:07:25.323Z,1642
2018-05-17T13:08:27.065Z,1563
2018-05-17T13:09:28.701Z,1518
2018-05-17T13:10:30.343Z,1518
2018-05-17T13:11:32.148Z,1485
2018-05-17T13:12:33.729Z,1451
2018-05-17T13:13:35.530Z,1445
2018-05-17T13:14:37.113Z,1456
2018-05-17T13:15:38.910Z,1428
2018-05-17T13:16:40.432Z,1434
2018-05-17T13:17:41.964Z,1440
2018-05-17T13:18:43.886Z,1501
2018-05-17T13:19:45.449Z,1513
2018-05-17T13:20:46.973Z,1490
2018-05-17T13:21:48.642Z,1530
2018-05-17T13:22:50.251Z,1620
2018-05-17T13:23:51.970Z,1586
2018-05-17T13:24:53.657Z,1642
2018-05-17T13:25:55.409Z,1603
2018-05-17T13:26:57.102Z,1642
2018-05-17T13:27:58.580Z,1541
2018-05-17T13:29:00.121Z,1580
2018-05-17T13:30:01.612Z,1603
2018-05-17T13:31:03.122Z,1575
2018-05-17T13:32:04.791Z,1479
2018-05-17T13:33:06.340Z,1468
2018-05-17T13:34:08.364Z,1479
2018-05-17T13:35:10.049Z,1485
2018-05-17T13:36:12.106Z,1507
2018-05-17T13:37:13.792Z,1535
2018-05-17T13:38:15.299Z,1445
2018-05-17T13:39:17.144Z,1456
2018-05-17T13:40:19.097Z,1395
2018-05-17T13:41:20.695Z,1378
2018-05-17T13:42:22.281Z,1406
2018-05-17T13:43:24.310Z,1406
2018-05-17T13:44:25.932Z,1423
2018-05-17T13:45:27.544Z,1423
2018-05-17T13:46:29.168Z,1417
2018-05-17T13:47:30.779Z,1400
2018-05-17T13:48:32.885Z,1366
2018-05-17T13:49:35.086Z,1355
2018-05-17T13:50:36.737Z,1389
2018-05-17T13:51:38.652Z,1406
2018-05-17T13:52:40.502Z,1389
2018-05-17T13:53:42.059Z,1395
2018-05-17T13:54:43.945Z,1423
2018-05-17T13:55:45.713Z,1428
2018-05-17T13:56:47.394Z,1411
2018-05-17T13:57:49.473Z,1361
2018-05-17T13:58:51.341Z,1316
2018-05-17T13:59:53.315Z,1305
2018-05-17T14:00:54.860Z,1305
2018-05-17T14:01:56.410Z,1310
2018-05-17T14:02:58.007Z,1299
2018-05-17T14:03:59.621Z,1333
2018-05-17T14:05:01.155Z,1389
2018-05-17T14:06:02.705Z,1344
2018-05-17T14:07:04.219Z,1372
2018-05-17T14:08:05.858Z,1276
2018-05-17T14:09:07.656Z,1243
2018-05-17T14:10:09.341Z,1226
2018-05-17T14:11:10.950Z,1226
2018-05-17T14:12:12.794Z,1215
2018-05-17T14:13:14.515Z,1220
2018-05-17T14:14:16.120Z,1215
2018-05-17T14:15:17.792Z,1198
2018-05-17T14:16:19.226Z,1209
2018-05-17T14:17:21.150Z,1237
2018-05-17T14:18:22.761Z,1260
2018-05-17T14:19:24.680Z,1338
2018-05-17T14:20:26.228Z,1395
2018-05-17T14:21:28.024Z,1428
2018-05-17T14:22:29.529Z,1513
2018-05-17T14:23:31.141Z,1569
2018-05-17T14:24:33.046Z,1614
2018-05-17T14:25:34.598Z,1648
2018-05-17T14:26:36.278Z,1603
2018-05-17T14:27:37.905Z,1710
2018-05-17T14:28:39.437Z,1755
2018-05-17T14:29:41.155Z,1732
2018-05-17T14:30:42.716Z,1586
2018-05-17T14:31:44.313Z,1591